AirNav   Air Wisconsin pilot careers
 
 983 users online  

80C Lone Hickory Airport
Yadkinville, North Carolina, USA

GOING TO YADKINVILLE?


FAA INFORMATION EFFECTIVE 04 JANUARY 2018

Location

FAA Identifier: 80C
Lat/Long: 36-03-37.8520N / 080-41-24.3600W
36-03.630867N / 080-41.406000W
36.0605144 / -80.6901000
(estimated)
Elevation: 1015 ft. / 309 m (estimated)
Variation: 06W (1995)
From city: 6 miles S of YADKINVILLE, NC
Time zone: UTC -5 (UTC -4 during Daylight Saving Time)
Zip code: 27055

Airport Operations

Airport use: Open to the public
Activation date: 12/1997
Control tower: no
ARTCC: ATLANTA CENTER
FSS: RALEIGH FLIGHT SERVICE STATION
NOTAMs facility: RDU (NOTAM-D service available)
Attendance: IREG
Wind indicator: yes
Segmented circle: no

Airport Communications

CTAF: 122.9

Nearby radio navigation aids

VOR radial/distance  VOR name  Freq  Var
BZMr073/29.1BARRETTS MOUNTAIN VOR/DME110.8006W
GSOr274/34.6GREENSBORO VORTAC116.2003W

 
NDB name  Hdg/Dist  Freq  Var  ID
ZEPHYR181/15.132608WZEF --.. . ..-.
LINCOLNTON038/36.843206WIZN .. --.. -.
ASHEE133/37.941007WJUH .--- ..- ....

Airport Services

Runway Information

Runway 16/34

Dimensions: 2000 x 60 ft. / 610 x 18 m
Surface: turf, in good condition
Gradient: S.
RUNWAY 16  RUNWAY 34
Latitude: 36-03.773400N36-03.488333N
Longitude: 080-41.508000W080-41.304000W
Elevation: 943.0 ft.1015.0 ft.
Gradient: 3.6% UP
Traffic pattern: leftleft
Runway heading: 156 magnetic, 150 true336 magnetic, 330 true
Obstructions: 10 ft. road, 14 ft. from runway, 54 ft. left and right of centerline97 ft. trees, 737 ft. from runway, 79 ft. right of centerline, 7:1 slope to clear

Airport Ownership and Management from official FAA records

Ownership: Privately-owned
Owner: HAROLD HOLCOMB & JEFF STEELE
1205 RUNWAY TRAIL
YADKINVILLE, NC 27055
Phone (336) 468-0641
STEELE'S ADDRESS: 1208 RUNWAY TRAIL YADKINVILLE, NC 27055
Manager: HAROLD DEAN HOLCOMB
1205 RUNWAY TRAIL
YADKINVILLE, NC 27055
Phone (336) 468-0641

Airport Operational Statistics

Aircraft based on the field: 6
Single engine airplanes: 6
    
Aircraft operations: avg 46/month *
91% local general aviation
9% transient general aviation
* for 12-month period ending 27 August 2016

Additional Remarks

ACFT OPERATING FM PINEY RIDGE ARPT 1.3 MI NW.
PLINES 500-1000 FT N RY 16 THLD.
RY 16/34 HAS 3% GRADE; WINDS PERMITTING TKOF RY 16 LND RY 34.
NO FLIGHT TRAINING OR STUDENT PILOTS; ONLY EXPERIENCED PILOTS PERMITTED.
RY 16 DEPARTURES MAKE LEFT TURN FOR NOISE & OBSTRUCTION AVOIDANCE.

Instrument Procedures

There are no published instrument procedures at 80C.

Some nearby airports with instrument procedures:

KZEF - Elkin Municipal Airport (14 nm N)
8A7 - Twin Lakes Airport (14 nm SE)
KSVH - Statesville Regional Airport (22 nm SW)
KUKF - Wilkes County Airport (22 nm NW)
KINT - Smith Reynolds Airport (23 nm E)
 
Loc | Ops | Rwys | IFR | FBO | Links
Com | Nav | Svcs | Stats | Notes


 
Area around 80C (Lone Hickory Airport)
 
Road maps at: MapQuest Bing Google
 
Aerial photo
No photo
 
Sectional chart

 
Airport distance calculator
Flying to Lone Hickory Airport? Find the distance to fly.

From to 80C

Sunrise and sunset
Times for 21-Jan-2018
 Local
(UTC-5)
 Zulu
(UTC)
Morning civil twilight07:0412:04
Sunrise07:3212:32
Sunset17:3722:37
Evening civil twilight18:0423:04

Current date and time
Zulu (UTC)  21-Jan-2018 20:46:26
Local (UTC-5)  21-Jan-2018 15:46:26
 
METAR
KUKF 
22nm NW 
212030Z AUTO 22006KT 10SM OVC075 18/06 A3022 RMK AO2
KSVH 
23nm SW 
212035Z AUTO 20005KT 10SM CLR 19/02 A3016 RMK AO2 T01900023
KINT 
23nm E 
211954Z 22005KT 10SM BKN080 18/06 A3019 RMK AO2 SLP222 T01780056
KEXX 
25nm SE 
212035Z AUTO 14003KT 10SM CLR 19/06 A3018 RMK AO2 T01890060
KMWK 
25nm N 
212040Z AUTO 19006KT 10SM SCT080 18/06 A3019 RMK AO2 T01810059
KRUQ 
26nm S 
212035Z AUTO 20004KT 10SM CLR 19/06 A3018 RMK AO2 T01910055
KGSO 
36nm E 
211954Z 24007KT 10SM SCT080 18/06 A3018 RMK AO2 SLP217 T01830061 $
KHKY 
38nm SW 
211953Z 18007KT 130V200 10SM OVC080 18/05 A3017 RMK AO2 SLP204 T01830050
KJQF 
41nm S 
211950Z 20007KT 10SM CLR 20/04 A3021
KGEV 
42nm NW 
212025Z AUTO 00000KT 10SM SCT038 BKN044 OVC060 13/05 A3019 RMK AO2 T01270046
TAF
KINT 
23nm E 
211736Z 2118/2218 23007KT P6SM FEW050 FM220400 00000KT P6SM FEW250 FM221700 19009KT P6SM BKN200
NOTAMs
Click for the latest NOTAMs
NOTAMs are issued by the DoD/FAA and will open in a separate window not controlled by AirNav.

 

 
 

Would you like to see your business listed on this page?

 If your business provides an interesting product or service to pilots, flight crews, aircraft, or users of the Lone Hickory Airport, you should consider listing it here.  To start the listing process, click on the button below
 
Add a business
 

Other Pages about Lone Hickory Airport

Update a link
 
Copyright © AirNav, LLC. All rights reserved. Privacy Policy  Contact